Terminal Aerodrome Forecast
Issued by NWS Paducah, KY

Home | Current Version | Previous Version | Text Only | Print | Product List | Glossary On
Versions: 1 2 3 4 5 6 7 8 9 10 11 12 13 14 15 16 17 18 19 20
000
FTUS43 KPAH 241720
TAFEVV
TAF
KEVV 241720Z 2418/2518 08007KT P6SM SCT040 OVC070
      TEMPO 2418/2422 5SM -SHRA BKN025
     FM250200 12009KT P6SM BKN050
     FM250700 20012KT P6SM SCT020 BKN035 PROB30 2507/2512 3SM SHRA
      BKN020
     FM251200 24007KT P6SM SCT050 BKN250=

USA.gov is the U.S. government's official web portal to all federal, state and local government web resources and services.